Kamloops, Canada
Current Conditions -  °F | °C
As of 3:00 PM on Saturday 20 Dec 2014 (Local Time) from CYKA Reporting Station
Broken Clouds Broken Clouds  
Wind Chill: 37°   Ceiling: 7600
Heat Index: 43°   Visibility: 40mi
Dew Point: 32°   Wind: 9mph
Humidity: 66%   Direction: 80°E
Pressure: 29.51"   Gusts: NA
Location:  50.68°N, 120.34°W
Report Text: CYKA 202300Z 08008KT 40SM SCT060 BKN076 BKN240 06/M00 A2951 RMK SC4AC2CI1 SLP004
Loading
Personal Weather Stations






























Interactive Weather Map New forecast layout! Learn more

10-Day Weather Forecast

Advertisements
Track Severe Weather on mobile